Houston, Texas
Traffic Map
Current Weather Conditions
Houston, Texas
Clear
Clear
70°
Feels Like: 70°
Wind Chill: 70° Ceiling: Unl
Heat Index: 70° Visibility: 10mi
Dew Point: 55° Wind: 7mph
Humidity: 60% Direction: 320° (NW)
Pressure: 30.24in Gusts: 0mph
Raw Report DataKMCJ 300255Z AUTO 32006KT 10SM CLR 21/13 A3024 RMK AO1
Traffic Incident Summary
Active as of:
Severity:
Category:
InformationThere was an issue retrieving the traffic information for this location. Please try a different location or try again shortly.
Advertisements
Track Severe Weather on mobile